sensor_id;sensor_type;location;lat;lon;timestamp;pressure;altitude;pressure_sealevel;temperature;humidity
27712;BME280;2377;51.734;8.950;2023-04-01T00:01:57;95796.13;;;9.65;100.00
27712;BME280;2377;51.734;8.950;2023-04-01T00:04:24;95796.34;;;9.68;100.00
27712;BME280;2377;51.734;8.950;2023-04-01T00:06:56;95793.56;;;9.70;100.00
27712;BME280;2377;51.734;8.950;2023-04-01T00:09:23;95796.34;;;9.68;100.00
27712;BME280;2377;51.734;8.950;2023-04-01T00:11:50;95798.66;;;9.65;100.00
27712;BME280;2377;51.734;8.950;2023-04-01T00:14:18;95792.81;;;9.64;100.00
27712;BME280;2377;51.734;8.950;2023-04-01T00:16:45;95791.03;;;9.65;100.00
27712;BME280;2377;51.734;8.950;2023-04-01T00:19:14;95796.63;;;9.67;100.00
27712;BME280;2377;51.734;8.950;2023-04-01T00:21:41;95797.91;;;9.64;100.00
27712;BME280;2377;51.734;8.950;2023-04-01T00:24:08;95799.41;;;9.70;100.00
27712;BME280;2377;51.734;8.950;2023-04-01T00:26:35;95797.41;;;9.67;100.00
27712;BME280;2377;51.734;8.950;2023-04-01T00:29:02;95794.31;;;9.70;100.00
27712;BME280;2377;51.734;8.950;2023-04-01T00:31:34;95793.06;;;9.68;100.00
27712;BME280;2377;51.734;8.950;2023-04-01T00:34:01;95794.59;;;9.69;100.00
27712;BME280;2377;51.734;8.950;2023-04-01T00:36:28;95790.50;;;9.68;100.00
27712;BME280;2377;51.734;8.950;2023-04-01T00:38:55;95790.25;;;9.64;100.00
27712;BME280;2377;51.734;8.950;2023-04-01T00:41:22;95788.19;;;9.66;100.00
27712;BME280;2377;51.734;8.950;2023-04-01T00:43:52;95786.69;;;9.65;100.00
27712;BME280;2377;51.734;8.950;2023-04-01T00:46:20;95785.41;;;9.68;100.00
27712;BME280;2377;51.734;8.950;2023-04-01T00:48:53;95780.31;;;9.68;100.00
27712;BME280;2377;51.734;8.950;2023-04-01T00:51:25;95786.69;;;9.65;100.00
27712;BME280;2377;51.734;8.950;2023-04-01T00:53:56;95780.81;;;9.65;100.00
27712;BME280;2377;51.734;8.950;2023-04-01T00:56:30;95775.72;;;9.65;100.00
27712;BME280;2377;51.734;8.950;2023-04-01T00:59:02;95782.84;;;9.63;100.00
27712;BME280;2377;51.734;8.950;2023-04-01T01:01:32;95783.63;;;9.63;100.00
27712;BME280;2377;51.734;8.950;2023-04-01T01:04:03;95776.47;;;9.65;100.00
27712;BME280;2377;51.734;8.950;2023-04-01T01:06:44;95785.16;;;9.64;100.00
27712;BME280;2377;51.734;8.950;2023-04-01T01:09:26;95782.59;;;9.59;100.00
27712;BME280;2377;51.734;8.950;2023-04-01T01:12:03;95773.16;;;9.55;100.00
27712;BME280;2377;51.734;8.950;2023-04-01T01:14:49;95776.22;;;9.57;100.00
27712;BME280;2377;51.734;8.950;2023-04-01T01:17:30;95783.63;;;9.58;100.00
27712;BME280;2377;51.734;8.950;2023-04-01T01:24:13;95778.00;;;9.56;100.00
27712;BME280;2377;51.734;8.950;2023-04-01T01:26:59;95779.28;;;9.53;100.00
27712;BME280;2377;51.734;8.950;2023-04-01T01:30:14;95774.72;;;9.45;99.97
27712;BME280;2377;51.734;8.950;2023-04-01T01:33:24;95768.59;;;9.46;100.00
27712;BME280;2377;51.734;8.950;2023-04-01T01:35:57;95773.16;;;9.49;100.00
27712;BME280;2377;51.734;8.950;2023-04-01T01:38:31;95764.25;;;9.47;100.00
27712;BME280;2377;51.734;8.950;2023-04-01T01:41:00;95772.16;;;9.45;99.62
27712;BME280;2377;51.734;8.950;2023-04-01T01:43:37;95764.50;;;9.45;99.97
27712;BME280;2377;51.734;8.950;2023-04-01T01:46:10;95767.81;;;9.46;98.94
27712;BME280;2377;51.734;8.950;2023-04-01T01:48:41;95762.97;;;9.44;99.30
27712;BME280;2377;51.734;8.950;2023-04-01T01:51:11;95775.19;;;9.42;99.46
27712;BME280;2377;51.734;8.950;2023-04-01T01:53:38;95765.78;;;9.48;98.75
27712;BME280;2377;51.734;8.950;2023-04-01T01:56:06;95766.03;;;9.46;99.68
27712;BME280;2377;51.734;8.950;2023-04-01T01:58:37;95755.84;;;9.41;100.00
27712;BME280;2377;51.734;8.950;2023-04-01T02:01:11;95765.53;;;9.44;100.00
27712;BME280;2377;51.734;8.950;2023-04-01T02:03:42;95765.00;;;9.42;100.00
27712;BME280;2377;51.734;8.950;2023-04-01T02:06:17;95758.91;;;9.43;100.00
27712;BME280;2377;51.734;8.950;2023-04-01T02:08:50;95766.78;;;9.42;100.00
27712;BME280;2377;51.734;8.950;2023-04-01T02:11:25;95761.69;;;9.42;100.00
27712;BME280;2377;51.734;8.950;2023-04-01T02:13:57;95766.28;;;9.40;100.00
27712;BME280;2377;51.734;8.950;2023-04-01T02:16:29;95757.88;;;9.39;100.00
27712;BME280;2377;51.734;8.950;2023-04-01T02:18:59;95760.94;;;9.41;100.00
27712;BME280;2377;51.734;8.950;2023-04-01T02:21:32;95760.19;;;9.41;100.00
27712;BME280;2377;51.734;8.950;2023-04-01T02:24:02;95764.50;;;9.40;100.00
27712;BME280;2377;51.734;8.950;2023-04-01T02:26:29;95763.50;;;9.41;100.00
27712;BME280;2377;51.734;8.950;2023-04-01T02:28:59;95763.72;;;9.40;100.00
27712;BME280;2377;51.734;8.950;2023-04-01T02:31:28;95760.66;;;9.38;100.00
27712;BME280;2377;51.734;8.950;2023-04-01T02:33:56;95755.34;;;9.34;100.00
27712;BME280;2377;51.734;8.950;2023-04-01T02:36:23;95760.69;;;9.32;100.00
27712;BME280;2377;51.734;8.950;2023-04-01T02:38:53;95765.53;;;9.34;100.00
27712;BME280;2377;51.734;8.950;2023-04-01T02:41:22;95755.06;;;9.36;100.00
27712;BME280;2377;51.734;8.950;2023-04-01T02:43:49;95755.31;;;9.39;100.00
27712;BME280;2377;51.734;8.950;2023-04-01T02:46:16;95759.91;;;9.37;100.00
27712;BME280;2377;51.734;8.950;2023-04-01T02:48:45;95760.16;;;9.36;100.00
27712;BME280;2377;51.734;8.950;2023-04-01T02:51:12;95763.22;;;9.38;100.00
27712;BME280;2377;51.734;8.950;2023-04-01T02:53:39;95766.53;;;9.33;100.00
27712;BME280;2377;51.734;8.950;2023-04-01T02:56:07;95760.94;;;9.36;100.00
27712;BME280;2377;51.734;8.950;2023-04-01T02:58:34;95759.91;;;9.37;100.00
27712;BME280;2377;51.734;8.950;2023-04-01T03:01:01;95767.81;;;9.36;100.00
27712;BME280;2377;51.734;8.950;2023-04-01T03:03:28;95768.59;;;9.36;100.00
27712;BME280;2377;51.734;8.950;2023-04-01T03:05:55;95765.00;;;9.37;100.00
27712;BME280;2377;51.734;8.950;2023-04-01T03:08:24;95766.03;;;9.41;100.00
27712;BME280;2377;51.734;8.950;2023-04-01T03:10:51;95770.38;;;9.41;100.00
27712;BME280;2377;51.734;8.950;2023-04-01T03:13:19;95770.63;;;9.39;100.00
27712;BME280;2377;51.734;8.950;2023-04-01T03:15:46;95767.56;;;9.37;100.00
27712;BME280;2377;51.734;8.950;2023-04-01T03:18:13;95765.00;;;9.37;100.00
27712;BME280;2377;51.734;8.950;2023-04-01T03:20:40;95768.31;;;9.32;100.00
27712;BME280;2377;51.734;8.950;2023-04-01T03:23:07;95774.97;;;9.34;100.00
27712;BME280;2377;51.734;8.950;2023-04-01T03:25:34;95773.94;;;9.35;100.00
27712;BME280;2377;51.734;8.950;2023-04-01T03:28:01;95777.00;;;9.37;100.00
27712;BME280;2377;51.734;8.950;2023-04-01T03:30:29;95767.03;;;9.35;100.00
27712;BME280;2377;51.734;8.950;2023-04-01T03:32:59;95768.59;;;9.36;100.00
27712;BME280;2377;51.734;8.950;2023-04-01T03:35:26;95770.09;;;9.37;100.00
27712;BME280;2377;51.734;8.950;2023-04-01T03:37:54;95764.50;;;9.40;100.00
27712;BME280;2377;51.734;8.950;2023-04-01T03:40:21;95769.88;;;9.44;100.00
27712;BME280;2377;51.734;8.950;2023-04-01T03:42:49;95765.00;;;9.42;100.00
27712;BME280;2377;51.734;8.950;2023-04-01T03:45:17;95773.69;;;9.41;100.00
27712;BME280;2377;51.734;8.950;2023-04-01T03:47:45;95774.19;;;9.43;100.00
27712;BME280;2377;51.734;8.950;2023-04-01T03:50:12;95777.25;;;9.35;100.00
27712;BME280;2377;51.734;8.950;2023-04-01T03:52:39;95772.66;;;9.42;100.00
27712;BME280;2377;51.734;8.950;2023-04-01T03:55:07;95778.50;;;9.43;100.00
27712;BME280;2377;51.734;8.950;2023-04-01T03:57:34;95774.72;;;9.45;100.00
27712;BME280;2377;51.734;8.950;2023-04-01T04:00:01;95777.75;;;9.42;100.00
27712;BME280;2377;51.734;8.950;2023-04-01T04:02:29;95780.31;;;9.42;100.00
27712;BME280;2377;51.734;8.950;2023-04-01T04:04:57;95776.72;;;9.38;100.00
27712;BME280;2377;51.734;8.950;2023-04-01T04:07:24;95773.69;;;9.36;100.00
27712;BME280;2377;51.734;8.950;2023-04-01T04:09:51;95776.72;;;9.38;100.00
27712;BME280;2377;51.734;8.950;2023-04-01T04:12:21;95773.94;;;9.40;100.00
27712;BME280;2377;51.734;8.950;2023-04-01T04:14:48;95782.63;;;9.39;100.00
27712;BME280;2377;51.734;8.950;2023-04-01T04:17:14;95784.88;;;9.40;100.00
27712;BME280;2377;51.734;8.950;2023-04-01T04:19:42;95792.53;;;9.40;100.00
27712;BME280;2377;51.734;8.950;2023-04-01T04:22:10;95781.81;;;9.38;100.00
27712;BME280;2377;51.734;8.950;2023-04-01T04:24:38;95785.41;;;9.37;100.00
27712;BME280;2377;51.734;8.950;2023-04-01T04:27:05;95787.44;;;9.35;100.00
27712;BME280;2377;51.734;8.950;2023-04-01T04:29:32;95787.19;;;9.37;100.00
27712;BME280;2377;51.734;8.950;2023-04-01T04:31:59;95781.34;;;9.36;100.00
27712;BME280;2377;51.734;8.950;2023-04-01T04:34:26;95781.81;;;9.38;100.00
27712;BME280;2377;51.734;8.950;2023-04-01T04:36:53;95796.34;;;9.32;100.00
27712;BME280;2377;51.734;8.950;2023-04-01T04:39:21;95789.47;;;9.33;100.00
27712;BME280;2377;51.734;8.950;2023-04-01T04:41:48;95796.88;;;9.35;100.00
27712;BME280;2377;51.734;8.950;2023-04-01T04:44:15;95794.09;;;9.36;100.00
27712;BME280;2377;51.734;8.950;2023-04-01T04:46:42;95798.41;;;9.36;100.00
27712;BME280;2377;51.734;8.950;2023-04-01T04:49:09;95792.03;;;9.33;100.00
27712;BME280;2377;51.734;8.950;2023-04-01T04:51:36;95793.56;;;9.29;100.00
27712;BME280;2377;51.734;8.950;2023-04-01T04:54:04;95796.88;;;9.29;100.00
27712;BME280;2377;51.734;8.950;2023-04-01T04:56:33;95792.03;;;9.28;100.00
27712;BME280;2377;51.734;8.950;2023-04-01T04:59:01;95790.00;;;9.25;100.00
27712;BME280;2377;51.734;8.950;2023-04-01T05:01:28;95791.50;;;9.26;100.00
27712;BME280;2377;51.734;8.950;2023-04-01T05:03:55;95797.13;;;9.28;100.00
27712;BME280;2377;51.734;8.950;2023-04-01T05:06:22;95788.97;;;9.26;100.00
27712;BME280;2377;51.734;8.950;2023-04-01T05:08:55;95796.09;;;9.24;100.00
27712;BME280;2377;51.734;8.950;2023-04-01T05:11:23;95793.28;;;9.25;100.00
27712;BME280;2377;51.734;8.950;2023-04-01T05:13:55;95796.59;;;9.26;100.00
27712;BME280;2377;51.734;8.950;2023-04-01T05:16:22;95788.72;;;9.22;100.00
27712;BME280;2377;51.734;8.950;2023-04-01T05:18:49;95788.72;;;9.22;100.00
27712;BME280;2377;51.734;8.950;2023-04-01T05:21:16;95788.72;;;9.22;100.00
27712;BME280;2377;51.734;8.950;2023-04-01T05:23:43;95787.94;;;9.22;100.00
27712;BME280;2377;51.734;8.950;2023-04-01T05:26:12;95796.09;;;9.19;100.00
27712;BME280;2377;51.734;8.950;2023-04-01T05:28:40;95791.50;;;9.21;100.00
27712;BME280;2377;51.734;8.950;2023-04-01T05:31:11;95790.47;;;9.22;100.00
27712;BME280;2377;51.734;8.950;2023-04-01T05:33:39;95794.56;;;9.23;100.00
27712;BME280;2377;51.734;8.950;2023-04-01T05:36:08;95789.22;;;9.24;100.00
27712;BME280;2377;51.734;8.950;2023-04-01T05:38:36;95793.03;;;9.22;100.00
27712;BME280;2377;51.734;8.950;2023-04-01T05:41:03;95793.03;;;9.22;100.00
27712;BME280;2377;51.734;8.950;2023-04-01T05:43:31;95791.78;;;9.24;100.00
27712;BME280;2377;51.734;8.950;2023-04-01T05:45:58;95793.03;;;9.22;100.00
27712;BME280;2377;51.734;8.950;2023-04-01T05:48:26;95795.09;;;9.20;100.00
27712;BME280;2377;51.734;8.950;2023-04-01T05:50:53;95796.38;;;9.22;100.00
27712;BME280;2377;51.734;8.950;2023-04-01T05:53:20;95791.78;;;9.24;100.00
27712;BME280;2377;51.734;8.950;2023-04-01T05:55:47;95789.72;;;9.21;100.00
27712;BME280;2377;51.734;8.950;2023-04-01T05:58:14;95788.97;;;9.16;100.00
27712;BME280;2377;51.734;8.950;2023-04-01T06:00:41;95792.53;;;9.20;100.00
27712;BME280;2377;51.734;8.950;2023-04-01T06:03:08;95805.53;;;9.23;100.00
27712;BME280;2377;51.734;8.950;2023-04-01T06:05:41;95801.19;;;9.24;100.00
27712;BME280;2377;51.734;8.950;2023-04-01T06:08:12;95800.44;;;9.23;100.00
27712;BME280;2377;51.734;8.950;2023-04-01T06:10:55;95811.91;;;9.26;100.00
27712;BME280;2377;51.734;8.950;2023-04-01T06:13:47;95812.66;;;9.26;100.00
27712;BME280;2377;51.734;8.950;2023-04-01T06:16:36;95810.91;;;9.27;100.00
27712;BME280;2377;51.734;8.950;2023-04-01T06:19:18;95819.06;;;9.29;100.00
27712;BME280;2377;51.734;8.950;2023-04-01T06:22:21;95817.28;;;9.29;100.00
27712;BME280;2377;51.734;8.950;2023-04-01T06:25:10;95812.41;;;9.28;100.00
27712;BME280;2377;51.734;8.950;2023-04-01T06:28:04;95811.91;;;9.26;100.00
27712;BME280;2377;51.734;8.950;2023-04-01T06:30:41;95821.09;;;9.27;100.00
27712;BME280;2377;51.734;8.950;2023-04-01T06:33:31;95821.84;;;9.27;100.00
27712;BME280;2377;51.734;8.950;2023-04-01T06:36:39;95826.19;;;9.27;100.00
27712;BME280;2377;51.734;8.950;2023-04-01T06:39:46;95828.75;;;9.27;100.00
27712;BME280;2377;51.734;8.950;2023-04-01T06:42:43;95825.69;;;9.30;100.00
27712;BME280;2377;51.734;8.950;2023-04-01T06:45:30;95829.50;;;9.32;100.00
27712;BME280;2377;51.734;8.950;2023-04-01T06:48:20;95834.34;;;9.34;100.00
27712;BME280;2377;51.734;8.950;2023-04-01T06:51:04;95833.84;;;9.32;100.00
27712;BME280;2377;51.734;8.950;2023-04-01T06:53:44;95836.91;;;9.34;100.00
27712;BME280;2377;51.734;8.950;2023-04-01T06:56:20;95839.47;;;9.39;100.00
27712;BME280;2377;51.734;8.950;2023-04-01T06:58:53;95839.22;;;9.41;100.00
27712;BME280;2377;51.734;8.950;2023-04-01T07:01:28;95842.25;;;9.43;100.00
27712;BME280;2377;51.734;8.950;2023-04-01T07:04:00;95838.94;;;9.42;100.00
27712;BME280;2377;51.734;8.950;2023-04-01T07:06:32;95847.09;;;9.44;100.00
27712;BME280;2377;51.734;8.950;2023-04-01T07:09:08;95848.38;;;9.47;100.00
27712;BME280;2377;51.734;8.950;2023-04-01T07:11:40;95845.31;;;9.50;100.00
27712;BME280;2377;51.734;8.950;2023-04-01T07:14:19;95847.88;;;9.50;100.00
27712;BME280;2377;51.734;8.950;2023-04-01T07:16:52;95842.00;;;9.49;100.00
27712;BME280;2377;51.734;8.950;2023-04-01T07:19:29;95848.38;;;9.52;100.00
27712;BME280;2377;51.734;8.950;2023-04-01T07:22:03;95849.66;;;9.55;100.00
27712;BME280;2377;51.734;8.950;2023-04-01T07:24:34;95848.41;;;9.57;100.00
27712;BME280;2377;51.734;8.950;2023-04-01T07:27:09;95854.50;;;9.61;100.00
27712;BME280;2377;51.734;8.950;2023-04-01T07:29:36;95853.22;;;9.64;100.00
27712;BME280;2377;51.734;8.950;2023-04-01T07:32:21;95857.06;;;9.66;100.00
27712;BME280;2377;51.734;8.950;2023-04-01T07:35:09;95853.25;;;9.69;100.00
27712;BME280;2377;51.734;8.950;2023-04-01T07:37:47;95856.31;;;9.71;100.00
27712;BME280;2377;51.734;8.950;2023-04-01T07:40:30;95864.47;;;9.73;100.00
27712;BME280;2377;51.734;8.950;2023-04-01T07:43:30;95862.44;;;9.75;100.00
27712;BME280;2377;51.734;8.950;2023-04-01T07:46:11;95872.91;;;9.79;100.00
27712;BME280;2377;51.734;8.950;2023-04-01T07:48:50;95872.63;;;9.85;100.00
27712;BME280;2377;51.734;8.950;2023-04-01T07:51:27;95874.94;;;9.87;100.00
27712;BME280;2377;51.734;8.950;2023-04-01T07:54:07;95866.75;;;9.90;100.00
27712;BME280;2377;51.734;8.950;2023-04-01T07:56:44;95885.66;;;9.94;100.00
27712;BME280;2377;51.734;8.950;2023-04-01T07:59:24;95882.31;;;9.99;100.00
27712;BME280;2377;51.734;8.950;2023-04-01T08:02:06;95878.78;;;10.00;100.00
27712;BME280;2377;51.734;8.950;2023-04-01T08:04:54;95887.19;;;10.00;100.00
27712;BME280;2377;51.734;8.950;2023-04-01T08:07:30;95887.94;;;10.06;100.00
27712;BME280;2377;51.734;8.950;2023-04-01T08:10:11;95886.94;;;10.07;100.00
27712;BME280;2377;51.734;8.950;2023-04-01T08:12:53;95898.16;;;10.06;100.00
27712;BME280;2377;51.734;8.950;2023-04-01T08:15:33;95912.47;;;10.07;100.00
27712;BME280;2377;51.734;8.950;2023-04-01T08:18:15;95906.56;;;10.06;100.00
27712;BME280;2377;51.734;8.950;2023-04-01T08:20:51;95904.53;;;10.08;100.00
27712;BME280;2377;51.734;8.950;2023-04-01T08:23:24;95905.78;;;10.11;100.00
27712;BME280;2377;51.734;8.950;2023-04-01T08:26:00;95906.59;;;10.11;100.00
27712;BME280;2377;51.734;8.950;2023-04-01T08:28:36;95911.94;;;10.15;100.00
27712;BME280;2377;51.734;8.950;2023-04-01T08:31:11;95911.94;;;10.15;100.00
27712;BME280;2377;51.734;8.950;2023-04-01T08:33:44;95918.56;;;10.16;100.00
27712;BME280;2377;51.734;8.950;2023-04-01T08:36:16;95917.53;;;10.17;100.00
27712;BME280;2377;51.734;8.950;2023-04-01T08:38:52;95919.06;;;10.18;100.00
27712;BME280;2377;51.734;8.950;2023-04-01T08:41:47;95913.19;;;10.23;100.00
27712;BME280;2377;51.734;8.950;2023-04-01T08:48:27;95928.00;;;10.26;100.00
27712;BME280;2377;51.734;8.950;2023-04-01T08:57:31;95925.47;;;10.31;100.00
27712;BME280;2377;51.734;8.950;2023-04-01T09:00:15;95928.78;;;10.31;100.00
27712;BME280;2377;51.734;8.950;2023-04-01T09:03:24;95938.00;;;10.32;100.00
27712;BME280;2377;51.734;8.950;2023-04-01T09:06:29;95935.44;;;10.32;100.00
27712;BME280;2377;51.734;8.950;2023-04-01T09:09:29;95930.81;;;10.34;100.00
27712;BME280;2377;51.734;8.950;2023-04-01T09:16:00;95945.91;;;10.36;100.00
27712;BME280;2377;51.734;8.950;2023-04-01T09:18:50;95946.94;;;10.35;100.00
27712;BME280;2377;51.734;8.950;2023-04-01T09:21:41;95953.31;;;10.32;100.00
27712;BME280;2377;51.734;8.950;2023-04-01T09:24:35;95952.53;;;10.32;100.00
27712;BME280;2377;51.734;8.950;2023-04-01T09:27:22;95951.00;;;10.31;100.00
27712;BME280;2377;51.734;8.950;2023-04-01T09:30:31;95952.03;;;10.30;100.00
27712;BME280;2377;51.734;8.950;2023-04-01T09:36:31;95962.47;;;10.44;100.00
27712;BME280;2377;51.734;8.950;2023-04-01T09:39:30;95955.31;;;10.51;100.00
27712;BME280;2377;51.734;8.950;2023-04-01T09:42:32;95956.63;;;10.58;100.00
27712;BME280;2377;51.734;8.950;2023-04-01T09:45:09;95966.53;;;10.65;100.00
27712;BME280;2377;51.734;8.950;2023-04-01T09:48:00;95962.44;;;10.74;100.00
27712;BME280;2377;51.734;8.950;2023-04-01T09:50:46;95957.81;;;10.82;100.00
27712;BME280;2377;51.734;8.950;2023-04-01T09:53:48;95968.81;;;10.87;100.00
27712;BME280;2377;51.734;8.950;2023-04-01T09:57:03;95973.38;;;10.95;100.00
27712;BME280;2377;51.734;8.950;2023-04-01T10:00:09;95971.09;;;10.99;100.00
27712;BME280;2377;51.734;8.950;2023-04-01T10:03:20;95974.63;;;11.08;100.00
27712;BME280;2377;51.734;8.950;2023-04-01T10:06:41;95974.38;;;11.15;100.00
27712;BME280;2377;51.734;8.950;2023-04-01T10:13:22;95991.75;;;11.18;100.00
27712;BME280;2377;51.734;8.950;2023-04-01T10:16:16;95993.03;;;11.15;100.00
27712;BME280;2377;51.734;8.950;2023-04-01T10:19:39;95993.75;;;11.21;100.00
27712;BME280;2377;51.734;8.950;2023-04-01T10:22:54;95996.81;;;11.23;100.00
27712;BME280;2377;51.734;8.950;2023-04-01T10:28:56;95996.28;;;11.26;100.00
27712;BME280;2377;51.734;8.950;2023-04-01T10:31:57;95997.09;;;11.27;100.00
27712;BME280;2377;51.734;8.950;2023-04-01T10:35:20;95998.06;;;11.31;100.00
27712;BME280;2377;51.734;8.950;2023-04-01T10:38:31;96002.16;;;11.37;100.00
27712;BME280;2377;51.734;8.950;2023-04-01T10:41:43;96003.41;;;11.39;100.00
27712;BME280;2377;51.734;8.950;2023-04-01T10:51:07;96003.94;;;11.41;100.00
27712;BME280;2377;51.734;8.950;2023-04-01T10:53:48;96006.72;;;11.45;100.00
27712;BME280;2377;51.734;8.950;2023-04-01T10:56:50;96006.22;;;11.43;100.00
27712;BME280;2377;51.734;8.950;2023-04-01T11:03:34;96013.13;;;11.37;100.00
27712;BME280;2377;51.734;8.950;2023-04-01T11:13:34;96020.53;;;11.44;100.00
27712;BME280;2377;51.734;8.950;2023-04-01T11:16:54;96018.47;;;11.51;100.00
27712;BME280;2377;51.734;8.950;2023-04-01T11:20:07;96023.56;;;11.56;100.00
27712;BME280;2377;51.734;8.950;2023-04-01T11:23:14;96023.78;;;11.65;100.00
27712;BME280;2377;51.734;8.950;2023-04-01T11:26:09;96023.75;;;11.70;100.00
27712;BME280;2377;51.734;8.950;2023-04-01T11:29:04;96024.22;;;11.77;100.00
27712;BME280;2377;51.734;8.950;2023-04-01T11:31:55;96023.47;;;11.77;100.00
27712;BME280;2377;51.734;8.950;2023-04-01T11:35:01;96028.81;;;11.80;100.00
27712;BME280;2377;51.734;8.950;2023-04-01T11:37:44;96028.56;;;11.87;100.00
27712;BME280;2377;51.734;8.950;2023-04-01T11:40:28;96034.69;;;11.91;100.00
27712;BME280;2377;51.734;8.950;2023-04-01T11:43:08;96035.19;;;11.93;100.00
27712;BME280;2377;51.734;8.950;2023-04-01T11:45:47;96035.94;;;11.94;100.00
27712;BME280;2377;51.734;8.950;2023-04-01T11:48:49;96041.06;;;11.94;100.00
27712;BME280;2377;51.734;8.950;2023-04-01T11:51:54;96036.19;;;11.97;100.00
27712;BME280;2377;51.734;8.950;2023-04-01T11:55:02;96050.78;;;11.97;100.00
27712;BME280;2377;51.734;8.950;2023-04-01T11:57:51;96049.72;;;12.03;100.00
27712;BME280;2377;51.734;8.950;2023-04-01T12:01:04;96051.00;;;12.05;100.00
27712;BME280;2377;51.734;8.950;2023-04-01T12:04:09;96058.63;;;12.11;100.00
27712;BME280;2377;51.734;8.950;2023-04-01T12:06:44;96064.00;;;12.14;100.00
27712;BME280;2377;51.734;8.950;2023-04-01T12:09:25;96063.72;;;12.16;100.00
27712;BME280;2377;51.734;8.950;2023-04-01T12:12:13;96066.78;;;12.18;100.00
27712;BME280;2377;51.734;8.950;2023-04-01T12:14:57;96069.34;;;12.18;100.00
27712;BME280;2377;51.734;8.950;2023-04-01T12:17:37;96075.00;;;12.15;100.00
27712;BME280;2377;51.734;8.950;2023-04-01T12:20:30;96074.53;;;12.08;100.00
27712;BME280;2377;51.734;8.950;2023-04-01T12:23:29;96075.31;;;12.03;100.00
27712;BME280;2377;51.734;8.950;2023-04-01T12:26:37;96085.09;;;11.96;100.00
27712;BME280;2377;51.734;8.950;2023-04-01T12:29:34;96093.06;;;11.84;100.00
27712;BME280;2377;51.734;8.950;2023-04-01T12:32:19;96089.50;;;11.75;100.00
27712;BME280;2377;51.734;8.950;2023-04-01T12:35:13;96091.06;;;11.71;100.00
27712;BME280;2377;51.734;8.950;2023-04-01T12:37:53;96093.88;;;11.69;100.00
27712;BME280;2377;51.734;8.950;2023-04-01T12:40:51;96100.78;;;11.69;100.00
27712;BME280;2377;51.734;8.950;2023-04-01T12:43:50;96098.47;;;11.72;100.00
27712;BME280;2377;51.734;8.950;2023-04-01T12:46:28;96103.34;;;11.74;100.00
27712;BME280;2377;51.734;8.950;2023-04-01T12:49:31;96102.56;;;11.78;100.00
27712;BME280;2377;51.734;8.950;2023-04-01T12:52:08;96107.91;;;11.82;100.00
27712;BME280;2377;51.734;8.950;2023-04-01T13:01:25;96117.63;;;11.80;100.00
27712;BME280;2377;51.734;8.950;2023-04-01T13:04:36;96125.56;;;11.89;100.00
27712;BME280;2377;51.734;8.950;2023-04-01T13:07:47;96126.84;;;11.91;100.00
27712;BME280;2377;51.734;8.950;2023-04-01T13:10:40;96126.59;;;11.93;100.00
27712;BME280;2377;51.734;8.950;2023-04-01T13:13:42;96128.88;;;11.94;100.00
27712;BME280;2377;51.734;8.950;2023-04-01T13:16:19;96131.16;;;12.01;100.00
27712;BME280;2377;51.734;8.950;2023-04-01T13:18:59;96132.94;;;12.05;100.00
27712;BME280;2377;51.734;8.950;2023-04-01T13:21:51;96129.06;;;12.08;100.00
27712;BME280;2377;51.734;8.950;2023-04-01T13:24:43;96143.16;;;12.11;100.00
27712;BME280;2377;51.734;8.950;2023-04-01T13:27:21;96140.06;;;12.09;100.00
27712;BME280;2377;51.734;8.950;2023-04-01T13:30:12;96144.75;;;11.96;100.00
27712;BME280;2377;51.734;8.950;2023-04-01T13:32:52;96152.97;;;11.88;100.00
27712;BME280;2377;51.734;8.950;2023-04-01T13:35:35;96150.13;;;11.84;100.00
27712;BME280;2377;51.734;8.950;2023-04-01T13:38:35;96148.06;;;11.87;100.00
27712;BME280;2377;51.734;8.950;2023-04-01T13:41:14;96155.53;;;11.88;100.00
27712;BME280;2377;51.734;8.950;2023-04-01T13:43:51;96149.88;;;11.91;100.00
27712;BME280;2377;51.734;8.950;2023-04-01T13:46:46;96157.06;;;11.89;100.00
27712;BME280;2377;51.734;8.950;2023-04-01T13:49:41;96154.25;;;11.91;100.00
27712;BME280;2377;51.734;8.950;2023-04-01T13:52:48;96156.53;;;11.97;100.00
27712;BME280;2377;51.734;8.950;2023-04-01T13:56:02;96155.50;;;11.98;100.00
27712;BME280;2377;51.734;8.950;2023-04-01T13:58:57;96164.44;;;12.01;100.00
27712;BME280;2377;51.734;8.950;2023-04-01T14:01:39;96167.47;;;12.08;100.00
27712;BME280;2377;51.734;8.950;2023-04-01T14:04:53;96164.41;;;12.11;100.00
27712;BME280;2377;51.734;8.950;2023-04-01T14:07:50;96166.16;;;12.16;100.00
27712;BME280;2377;51.734;8.950;2023-04-01T14:10:35;96165.66;;;12.19;100.00
27712;BME280;2377;51.734;8.950;2023-04-01T14:13:13;96174.88;;;12.20;100.00
27712;BME280;2377;51.734;8.950;2023-04-01T14:16:47;96171.78;;;12.18;100.00
27712;BME280;2377;51.734;8.950;2023-04-01T14:19:39;96185.63;;;12.17;100.00
27712;BME280;2377;51.734;8.950;2023-04-01T14:22:25;96185.91;;;12.15;100.00
27712;BME280;2377;51.734;8.950;2023-04-01T14:25:35;96186.66;;;12.16;100.00
27712;BME280;2377;51.734;8.950;2023-04-01T14:28:18;96186.97;;;12.09;100.00
27712;BME280;2377;51.734;8.950;2023-04-01T14:31:18;96188.75;;;12.03;100.00
27712;BME280;2377;51.734;8.950;2023-04-01T14:34:00;96189.25;;;12.05;100.00
27712;BME280;2377;51.734;8.950;2023-04-01T14:36:50;96192.09;;;12.09;100.00
27712;BME280;2377;51.734;8.950;2023-04-01T14:39:43;96196.91;;;12.11;100.00
27712;BME280;2377;51.734;8.950;2023-04-01T14:45:55;96203.34;;;12.08;100.00
27712;BME280;2377;51.734;8.950;2023-04-01T14:48:32;96206.91;;;12.12;100.00
27712;BME280;2377;51.734;8.950;2023-04-01T14:51:15;96212.25;;;12.16;100.00
27712;BME280;2377;51.734;8.950;2023-04-01T14:53:56;96216.63;;;12.15;100.00
27712;BME280;2377;51.734;8.950;2023-04-01T14:56:41;96211.28;;;12.12;100.00
27712;BME280;2377;51.734;8.950;2023-04-01T14:59:16;96212.78;;;12.13;100.00
27712;BME280;2377;51.734;8.950;2023-04-01T15:02:01;96219.19;;;12.15;100.00
27712;BME280;2377;51.734;8.950;2023-04-01T15:04:54;96223.56;;;12.10;100.00
27712;BME280;2377;51.734;8.950;2023-04-01T15:08:03;96226.13;;;12.10;100.00
27712;BME280;2377;51.734;8.950;2023-04-01T15:13:54;96236.13;;;12.11;100.00
27712;BME280;2377;51.734;8.950;2023-04-01T15:16:34;96233.56;;;12.11;100.00
27712;BME280;2377;51.734;8.950;2023-04-01T15:19:23;96239.69;;;12.10;100.00